You are not logged in, Click here to log in
杭州萧山国际机场 / ZSHC 大陸
ICAO: ZSHC Country: 大陸
Latitude: 30.2359 Longitude: 120.439
Total Arrivals: 8 Total Departures: 8
Latest Arrival: CA150 (RCTP-ZSHC)CHU. CHUHAO Latest Departure: BR2771 (ZSHC-RCTP)CHU. CHUHAO
Scenery:
METAR : ZSHC 090730Z 00000MPS CAVOK 17/M01 Q1021 NOSIG

杭州萧山国际机场

You are accessing this site from IP address 100.26.176.182. Virtual Airline. CMS by phpVMS.Website designed by Zumeweb and edited by Theo Bearman.
There is 0 User(s) Online: | and 7 Guest(s) Online.
All information on this site is for fight simulation purposes only. This site is for flight logging for pilots of Virtual Airline&模擬飛行論壇 FlySim only.